sensor_id;sensor_type;location;lat;lon;timestamp;P1;durP1;ratioP1;P2;durP2;ratioP2
54917;SDS011;40818;50.562;7.454;2022-07-24T04:55:52;6.47;;;1.00;;
54917;SDS011;40818;50.562;7.454;2022-07-24T05:00:55;1.83;;;0.85;;
54917;SDS011;40818;50.562;7.454;2022-07-24T05:05:59;2.13;;;0.80;;
54917;SDS011;40818;50.562;7.454;2022-07-24T05:11:05;2.10;;;0.80;;
54917;SDS011;40818;50.562;7.454;2022-07-24T05:16:08;1.75;;;0.77;;
54917;SDS011;40818;50.562;7.454;2022-07-24T05:21:11;2.35;;;0.85;;
54917;SDS011;40818;50.562;7.454;2022-07-24T05:26:18;2.38;;;0.80;;
54917;SDS011;40818;50.562;7.454;2022-07-24T05:31:22;3.65;;;1.00;;
54917;SDS011;40818;50.562;7.454;2022-07-24T05:36:25;3.67;;;0.88;;
54917;SDS011;40818;50.562;7.454;2022-07-24T05:41:31;2.10;;;0.70;;
54917;SDS011;40818;50.562;7.454;2022-07-24T05:46:35;2.20;;;0.85;;
54917;SDS011;40818;50.562;7.454;2022-07-24T05:51:38;2.70;;;0.85;;
54917;SDS011;40818;50.562;7.454;2022-07-24T05:56:44;2.08;;;0.82;;
54917;SDS011;40818;50.562;7.454;2022-07-24T06:01:48;2.35;;;0.88;;
54917;SDS011;40818;50.562;7.454;2022-07-24T06:06:51;2.22;;;0.70;;
54917;SDS011;40818;50.562;7.454;2022-07-24T06:11:57;2.67;;;0.80;;
54917;SDS011;40818;50.562;7.454;2022-07-24T06:17:00;3.13;;;0.70;;
54917;SDS011;40818;50.562;7.454;2022-07-24T06:22:04;1.90;;;0.70;;
54917;SDS011;40818;50.562;7.454;2022-07-24T06:27:10;2.05;;;0.80;;
54917;SDS011;40818;50.562;7.454;2022-07-24T06:32:13;3.85;;;0.63;;
54917;SDS011;40818;50.562;7.454;2022-07-24T06:37:16;5.25;;;0.80;;
54917;SDS011;40818;50.562;7.454;2022-07-24T06:42:22;2.03;;;0.70;;
54917;SDS011;40818;50.562;7.454;2022-07-24T06:47:26;7.97;;;0.70;;
54917;SDS011;40818;50.562;7.454;2022-07-24T06:52:29;2.35;;;0.60;;
54917;SDS011;40818;50.562;7.454;2022-07-24T06:57:36;1.95;;;0.60;;
54917;SDS011;40818;50.562;7.454;2022-07-24T07:02:39;4.63;;;0.90;;
54917;SDS011;40818;50.562;7.454;2022-07-24T07:07:43;1.65;;;0.60;;
54917;SDS011;40818;50.562;7.454;2022-07-24T07:12:49;1.20;;;0.60;;
54917;SDS011;40818;50.562;7.454;2022-07-24T07:17:52;2.88;;;0.60;;
54917;SDS011;40818;50.562;7.454;2022-07-24T07:22:56;1.80;;;0.50;;
54917;SDS011;40818;50.562;7.454;2022-07-24T07:28:02;2.10;;;0.50;;
54917;SDS011;40818;50.562;7.454;2022-07-24T07:33:05;1.27;;;0.40;;
54917;SDS011;40818;50.562;7.454;2022-07-24T07:38:08;2.67;;;0.40;;
54917;SDS011;40818;50.562;7.454;2022-07-24T07:43:14;1.60;;;0.50;;
54917;SDS011;40818;50.562;7.454;2022-07-24T07:48:18;1.90;;;0.40;;
54917;SDS011;40818;50.562;7.454;2022-07-24T07:53:21;1.30;;;0.40;;
54917;SDS011;40818;50.562;7.454;2022-07-24T07:58:27;2.97;;;0.40;;
54917;SDS011;40818;50.562;7.454;2022-07-24T08:03:31;1.42;;;0.30;;
54917;SDS011;40818;50.562;7.454;2022-07-24T08:08:34;1.13;;;0.43;;
54917;SDS011;40818;50.562;7.454;2022-07-24T08:13:40;2.05;;;0.40;;
54917;SDS011;40818;50.562;7.454;2022-07-24T08:18:43;1.77;;;0.43;;
54917;SDS011;40818;50.562;7.454;2022-07-24T08:23:47;0.90;;;0.40;;
54917;SDS011;40818;50.562;7.454;2022-07-24T08:28:53;1.33;;;0.65;;
54917;SDS011;40818;50.562;7.454;2022-07-24T08:33:58;1.60;;;0.40;;
54917;SDS011;40818;50.562;7.454;2022-07-24T08:39:01;0.90;;;0.50;;
54917;SDS011;40818;50.562;7.454;2022-07-24T08:44:08;0.88;;;0.40;;
54917;SDS011;40818;50.562;7.454;2022-07-24T08:49:14;1.77;;;0.38;;
54917;SDS011;40818;50.562;7.454;2022-07-24T08:54:17;1.30;;;0.50;;
54917;SDS011;40818;50.562;7.454;2022-07-24T08:59:23;1.10;;;0.40;;
54917;SDS011;40818;50.562;7.454;2022-07-24T09:04:30;0.80;;;0.40;;
54917;SDS011;40818;50.562;7.454;2022-07-24T09:09:35;0.95;;;0.40;;
54917;SDS011;40818;50.562;7.454;2022-07-24T09:14:43;2.05;;;0.50;;
54917;SDS011;40818;50.562;7.454;2022-07-24T09:19:48;3.17;;;0.50;;
54917;SDS011;40818;50.562;7.454;2022-07-24T09:25:07;2.42;;;0.40;;
54917;SDS011;40818;50.562;7.454;2022-07-24T09:30:25;2.70;;;0.45;;
54917;SDS011;40818;50.562;7.454;2022-07-24T09:35:32;1.73;;;0.50;;
54917;SDS011;40818;50.562;7.454;2022-07-24T09:40:38;1.23;;;0.40;;
54917;SDS011;40818;50.562;7.454;2022-07-24T09:45:56;2.33;;;0.90;;
54917;SDS011;40818;50.562;7.454;2022-07-24T09:51:03;1.38;;;0.40;;
54917;SDS011;40818;50.562;7.454;2022-07-24T09:56:08;1.45;;;0.50;;
54917;SDS011;40818;50.562;7.454;2022-07-24T10:01:17;6.25;;;0.50;;
54917;SDS011;40818;50.562;7.454;2022-07-24T10:06:22;1.02;;;0.40;;
54917;SDS011;40818;50.562;7.454;2022-07-24T10:11:28;1.17;;;0.40;;
54917;SDS011;40818;50.562;7.454;2022-07-24T10:16:41;1.63;;;0.50;;
54917;SDS011;40818;50.562;7.454;2022-07-24T10:21:52;1.70;;;0.45;;
54917;SDS011;40818;50.562;7.454;2022-07-24T10:27:00;2.15;;;0.50;;
54917;SDS011;40818;50.562;7.454;2022-07-24T10:32:08;1.70;;;0.57;;
54917;SDS011;40818;50.562;7.454;2022-07-24T10:37:19;5.10;;;0.50;;
54917;SDS011;40818;50.562;7.454;2022-07-24T10:42:26;2.38;;;0.50;;
54917;SDS011;40818;50.562;7.454;2022-07-24T10:47:32;1.60;;;0.50;;
54917;SDS011;40818;50.562;7.454;2022-07-24T10:52:36;1.45;;;0.50;;
54917;SDS011;40818;50.562;7.454;2022-07-24T10:57:54;1.55;;;0.50;;
54917;SDS011;40818;50.562;7.454;2022-07-24T11:03:02;0.93;;;0.40;;
54917;SDS011;40818;50.562;7.454;2022-07-24T11:08:26;1.63;;;0.50;;
54917;SDS011;40818;50.562;7.454;2022-07-24T11:13:39;2.33;;;0.70;;
54917;SDS011;40818;50.562;7.454;2022-07-24T11:24:23;1.80;;;0.50;;
54917;SDS011;40818;50.562;7.454;2022-07-24T11:29:31;1.48;;;0.50;;
54917;SDS011;40818;50.562;7.454;2022-07-24T11:34:36;1.77;;;0.40;;
54917;SDS011;40818;50.562;7.454;2022-07-24T11:39:43;1.77;;;0.50;;
54917;SDS011;40818;50.562;7.454;2022-07-24T11:44:50;2.95;;;0.75;;
54917;SDS011;40818;50.562;7.454;2022-07-24T11:49:54;3.17;;;0.45;;
54917;SDS011;40818;50.562;7.454;2022-07-24T11:55:04;2.03;;;0.60;;
54917;SDS011;40818;50.562;7.454;2022-07-24T12:00:10;1.23;;;0.50;;
54917;SDS011;40818;50.562;7.454;2022-07-24T12:05:23;1.40;;;0.50;;
54917;SDS011;40818;50.562;7.454;2022-07-24T12:10:31;1.92;;;0.50;;
54917;SDS011;40818;50.562;7.454;2022-07-24T12:15:37;1.60;;;0.40;;
54917;SDS011;40818;50.562;7.454;2022-07-24T12:20:41;6.78;;;0.50;;
54917;SDS011;40818;50.562;7.454;2022-07-24T12:25:50;1.75;;;0.50;;
54917;SDS011;40818;50.562;7.454;2022-07-24T12:30:54;4.07;;;0.50;;
54917;SDS011;40818;50.562;7.454;2022-07-24T12:35:58;12.13;;;0.55;;
54917;SDS011;40818;50.562;7.454;2022-07-24T12:41:11;1.30;;;0.50;;
54917;SDS011;40818;50.562;7.454;2022-07-24T12:46:16;2.08;;;0.60;;
54917;SDS011;40818;50.562;7.454;2022-07-24T12:51:21;2.08;;;0.50;;
54917;SDS011;40818;50.562;7.454;2022-07-24T12:56:32;2.20;;;0.50;;
54917;SDS011;40818;50.562;7.454;2022-07-24T13:01:46;1.25;;;0.43;;
54917;SDS011;40818;50.562;7.454;2022-07-24T13:06:51;1.23;;;0.50;;
54917;SDS011;40818;50.562;7.454;2022-07-24T13:11:59;2.55;;;0.43;;
54917;SDS011;40818;50.562;7.454;2022-07-24T13:17:03;2.03;;;0.50;;
54917;SDS011;40818;50.562;7.454;2022-07-24T13:22:10;1.23;;;0.40;;
54917;SDS011;40818;50.562;7.454;2022-07-24T13:27:16;1.50;;;0.50;;
54917;SDS011;40818;50.562;7.454;2022-07-24T13:32:21;1.83;;;0.50;;
54917;SDS011;40818;50.562;7.454;2022-07-24T13:37:25;3.97;;;0.80;;
54917;SDS011;40818;50.562;7.454;2022-07-24T13:42:31;2.95;;;0.40;;
54917;SDS011;40818;50.562;7.454;2022-07-24T13:47:34;1.40;;;0.47;;
54917;SDS011;40818;50.562;7.454;2022-07-24T13:52:38;1.17;;;0.40;;
54917;SDS011;40818;50.562;7.454;2022-07-24T13:57:44;1.65;;;0.50;;
54917;SDS011;40818;50.562;7.454;2022-07-24T14:02:47;2.28;;;0.60;;
54917;SDS011;40818;50.562;7.454;2022-07-24T14:07:55;1.13;;;0.40;;
54917;SDS011;40818;50.562;7.454;2022-07-24T14:13:01;1.35;;;0.50;;
54917;SDS011;40818;50.562;7.454;2022-07-24T14:18:04;2.95;;;0.40;;
54917;SDS011;40818;50.562;7.454;2022-07-24T14:23:08;2.45;;;0.40;;
54917;SDS011;40818;50.562;7.454;2022-07-24T14:28:14;2.78;;;0.40;;
54917;SDS011;40818;50.562;7.454;2022-07-24T14:33:18;2.60;;;0.30;;
54917;SDS011;40818;50.562;7.454;2022-07-24T14:38:21;5.57;;;0.40;;
54917;SDS011;40818;50.562;7.454;2022-07-24T14:43:27;2.17;;;0.40;;
54917;SDS011;40818;50.562;7.454;2022-07-24T14:48:30;2.25;;;0.40;;
54917;SDS011;40818;50.562;7.454;2022-07-24T14:53:34;7.53;;;0.50;;
54917;SDS011;40818;50.562;7.454;2022-07-24T14:58:40;3.65;;;0.50;;
54917;SDS011;40818;50.562;7.454;2022-07-24T15:03:43;1.15;;;0.40;;
54917;SDS011;40818;50.562;7.454;2022-07-24T15:08:47;1.20;;;0.40;;
54917;SDS011;40818;50.562;7.454;2022-07-24T15:13:53;1.25;;;0.50;;
54917;SDS011;40818;50.562;7.454;2022-07-24T15:18:57;1.00;;;0.40;;
54917;SDS011;40818;50.562;7.454;2022-07-24T15:24:00;2.20;;;0.30;;
54917;SDS011;40818;50.562;7.454;2022-07-24T15:29:06;1.88;;;0.32;;
54917;SDS011;40818;50.562;7.454;2022-07-24T15:34:10;1.40;;;0.50;;
54917;SDS011;40818;50.562;7.454;2022-07-24T15:39:13;2.83;;;0.40;;
54917;SDS011;40818;50.562;7.454;2022-07-24T15:44:19;1.20;;;0.40;;
54917;SDS011;40818;50.562;7.454;2022-07-24T15:49:22;1.10;;;0.40;;
54917;SDS011;40818;50.562;7.454;2022-07-24T15:54:26;4.43;;;0.50;;
54917;SDS011;40818;50.562;7.454;2022-07-24T15:59:32;3.60;;;0.40;;
54917;SDS011;40818;50.562;7.454;2022-07-24T16:04:35;1.23;;;0.40;;
54917;SDS011;40818;50.562;7.454;2022-07-24T16:09:39;1.38;;;0.43;;
54917;SDS011;40818;50.562;7.454;2022-07-24T16:14:45;1.15;;;0.43;;
54917;SDS011;40818;50.562;7.454;2022-07-24T16:19:48;3.03;;;0.52;;
54917;SDS011;40818;50.562;7.454;2022-07-24T16:24:52;1.17;;;0.50;;
54917;SDS011;40818;50.562;7.454;2022-07-24T16:29:58;2.33;;;0.50;;
54917;SDS011;40818;50.562;7.454;2022-07-24T16:35:02;1.90;;;0.50;;
54917;SDS011;40818;50.562;7.454;2022-07-24T16:40:07;2.50;;;0.50;;
54917;SDS011;40818;50.562;7.454;2022-07-24T16:45:14;1.15;;;0.40;;
54917;SDS011;40818;50.562;7.454;2022-07-24T16:50:17;3.25;;;0.60;;
54917;SDS011;40818;50.562;7.454;2022-07-24T16:55:21;1.50;;;0.50;;
54917;SDS011;40818;50.562;7.454;2022-07-24T17:00:27;2.55;;;0.50;;
54917;SDS011;40818;50.562;7.454;2022-07-24T17:05:30;3.08;;;0.57;;
54917;SDS011;40818;50.562;7.454;2022-07-24T17:10:34;1.83;;;0.55;;
54917;SDS011;40818;50.562;7.454;2022-07-24T17:15:40;1.20;;;0.50;;
54917;SDS011;40818;50.562;7.454;2022-07-24T17:20:43;2.35;;;0.60;;
54917;SDS011;40818;50.562;7.454;2022-07-24T17:25:47;1.45;;;0.50;;
54917;SDS011;40818;50.562;7.454;2022-07-24T17:30:53;1.48;;;0.43;;
54917;SDS011;40818;50.562;7.454;2022-07-24T17:35:58;2.00;;;0.57;;
54917;SDS011;40818;50.562;7.454;2022-07-24T17:41:02;1.80;;;0.52;;
54917;SDS011;40818;50.562;7.454;2022-07-24T17:46:10;2.00;;;0.60;;
54917;SDS011;40818;50.562;7.454;2022-07-24T17:51:13;2.00;;;0.50;;
54917;SDS011;40818;50.562;7.454;2022-07-24T17:56:17;1.67;;;0.70;;
54917;SDS011;40818;50.562;7.454;2022-07-24T18:01:26;2.22;;;0.60;;
54917;SDS011;40818;50.562;7.454;2022-07-24T18:06:38;1.80;;;0.60;;
54917;SDS011;40818;50.562;7.454;2022-07-24T18:11:41;2.10;;;0.77;;
54917;SDS011;40818;50.562;7.454;2022-07-24T18:16:47;1.90;;;0.52;;
54917;SDS011;40818;50.562;7.454;2022-07-24T18:21:51;3.50;;;0.82;;
54917;SDS011;40818;50.562;7.454;2022-07-24T18:26:54;2.70;;;0.80;;
54917;SDS011;40818;50.562;7.454;2022-07-24T18:32:01;2.13;;;0.70;;
54917;SDS011;40818;50.562;7.454;2022-07-24T18:37:05;3.67;;;0.95;;
54917;SDS011;40818;50.562;7.454;2022-07-24T18:42:08;4.63;;;0.80;;
54917;SDS011;40818;50.562;7.454;2022-07-24T18:47:14;2.05;;;0.73;;
54917;SDS011;40818;50.562;7.454;2022-07-24T18:52:17;1.67;;;0.75;;
54917;SDS011;40818;50.562;7.454;2022-07-24T18:57:21;6.47;;;0.75;;
54917;SDS011;40818;50.562;7.454;2022-07-24T19:02:27;1.92;;;0.80;;
54917;SDS011;40818;50.562;7.454;2022-07-24T19:07:30;3.15;;;0.90;;
54917;SDS011;40818;50.562;7.454;2022-07-24T19:12:33;2.13;;;0.80;;
54917;SDS011;40818;50.562;7.454;2022-07-24T19:17:40;2.40;;;0.90;;
54917;SDS011;40818;50.562;7.454;2022-07-24T19:22:43;1.80;;;0.80;;
54917;SDS011;40818;50.562;7.454;2022-07-24T19:27:47;3.75;;;1.00;;
54917;SDS011;40818;50.562;7.454;2022-07-24T19:32:53;2.53;;;0.90;;
54917;SDS011;40818;50.562;7.454;2022-07-24T19:37:56;2.20;;;0.90;;
54917;SDS011;40818;50.562;7.454;2022-07-24T19:43:02;4.40;;;0.88;;
54917;SDS011;40818;50.562;7.454;2022-07-24T19:48:08;2.20;;;0.80;;
54917;SDS011;40818;50.562;7.454;2022-07-24T19:53:11;4.10;;;0.90;;
54917;SDS011;40818;50.562;7.454;2022-07-24T19:58:15;2.97;;;1.00;;
54917;SDS011;40818;50.562;7.454;2022-07-24T20:03:21;2.13;;;0.90;;
54917;SDS011;40818;50.562;7.454;2022-07-24T20:08:24;3.90;;;0.93;;
54917;SDS011;40818;50.562;7.454;2022-07-24T20:13:27;2.40;;;1.00;;
54917;SDS011;40818;50.562;7.454;2022-07-24T20:18:33;2.33;;;1.00;;
54917;SDS011;40818;50.562;7.454;2022-07-24T20:23:37;2.85;;;1.20;;
54917;SDS011;40818;50.562;7.454;2022-07-24T20:28:40;2.58;;;1.30;;
54917;SDS011;40818;50.562;7.454;2022-07-24T20:33:46;4.72;;;1.15;;
54917;SDS011;40818;50.562;7.454;2022-07-24T20:38:49;4.90;;;1.00;;
54917;SDS011;40818;50.562;7.454;2022-07-24T20:43:53;2.30;;;1.00;;
54917;SDS011;40818;50.562;7.454;2022-07-24T20:48:59;2.80;;;1.10;;
54917;SDS011;40818;50.562;7.454;2022-07-24T20:54:02;4.22;;;1.10;;
54917;SDS011;40818;50.562;7.454;2022-07-24T20:59:06;5.28;;;1.10;;
54917;SDS011;40818;50.562;7.454;2022-07-24T21:04:12;2.40;;;1.00;;
54917;SDS011;40818;50.562;7.454;2022-07-24T21:09:15;14.50;;;1.10;;
54917;SDS011;40818;50.562;7.454;2022-07-24T21:14:18;2.40;;;0.90;;
54917;SDS011;40818;50.562;7.454;2022-07-24T21:19:24;5.07;;;1.00;;
54917;SDS011;40818;50.562;7.454;2022-07-24T21:24:28;3.70;;;1.10;;
54917;SDS011;40818;50.562;7.454;2022-07-24T21:29:31;3.75;;;1.10;;
54917;SDS011;40818;50.562;7.454;2022-07-24T21:34:37;5.47;;;1.20;;
54917;SDS011;40818;50.562;7.454;2022-07-24T21:39:41;3.88;;;1.10;;
54917;SDS011;40818;50.562;7.454;2022-07-24T21:44:44;6.78;;;1.20;;
54917;SDS011;40818;50.562;7.454;2022-07-24T21:49:50;3.15;;;1.02;;
54917;SDS011;40818;50.562;7.454;2022-07-24T21:54:53;4.18;;;1.00;;
54917;SDS011;40818;50.562;7.454;2022-07-24T21:59:57;3.50;;;1.10;;
54917;SDS011;40818;50.562;7.454;2022-07-24T22:05:03;3.45;;;1.00;;
54917;SDS011;40818;50.562;7.454;2022-07-24T22:10:08;1.90;;;1.00;;
54917;SDS011;40818;50.562;7.454;2022-07-24T22:15:11;4.47;;;1.00;;
54917;SDS011;40818;50.562;7.454;2022-07-24T22:20:17;3.00;;;0.98;;
54917;SDS011;40818;50.562;7.454;2022-07-24T22:25:21;2.30;;;1.10;;
54917;SDS011;40818;50.562;7.454;2022-07-24T22:30:24;3.92;;;1.02;;
54917;SDS011;40818;50.562;7.454;2022-07-24T22:35:31;2.28;;;1.00;;
54917;SDS011;40818;50.562;7.454;2022-07-24T22:40:35;3.28;;;1.00;;
54917;SDS011;40818;50.562;7.454;2022-07-24T22:45:39;2.72;;;0.95;;
54917;SDS011;40818;50.562;7.454;2022-07-24T22:50:46;10.20;;;1.20;;
54917;SDS011;40818;50.562;7.454;2022-07-24T22:55:50;2.75;;;1.05;;
54917;SDS011;40818;50.562;7.454;2022-07-24T23:00:53;6.00;;;1.00;;
54917;SDS011;40818;50.562;7.454;2022-07-24T23:06:00;2.55;;;1.00;;
54917;SDS011;40818;50.562;7.454;2022-07-24T23:11:03;3.33;;;1.33;;
54917;SDS011;40818;50.562;7.454;2022-07-24T23:16:07;4.05;;;1.00;;
54917;SDS011;40818;50.562;7.454;2022-07-24T23:21:13;3.55;;;0.90;;
